createdAt,value
2019-03-16T00:00:15.873Z,13.83
2019-03-16T00:02:44.623Z,12.53
2019-03-16T00:05:13.601Z,12.15
2019-03-16T00:07:42.060Z,12.83
2019-03-16T00:10:10.978Z,28.38
2019-03-16T00:12:39.605Z,21.93
2019-03-16T00:15:08.905Z,21.43
2019-03-16T00:17:37.750Z,18.05
2019-03-16T00:20:11.436Z,10.05
2019-03-16T00:22:40.048Z,9.10
2019-03-16T00:25:10.094Z,16.87
2019-03-16T00:27:38.699Z,17.82
2019-03-16T00:30:12.919Z,15.00
2019-03-16T00:32:41.597Z,16.15
2019-03-16T00:35:10.995Z,10.63
2019-03-16T00:37:42.601Z,8.70
2019-03-16T00:40:12.954Z,10.95
2019-03-16T00:42:41.595Z,9.83
2019-03-16T00:45:12.067Z,9.43
2019-03-16T00:47:40.618Z,12.03
2019-03-16T00:50:13.723Z,7.07
2019-03-16T00:52:42.655Z,11.57
2019-03-16T00:55:12.221Z,21.23
2019-03-16T00:57:40.927Z,34.37
2019-03-16T01:00:15.319Z,34.00
2019-03-16T01:02:44.646Z,34.30
2019-03-16T01:05:13.464Z,32.30
2019-03-16T01:07:42.085Z,15.40
2019-03-16T01:10:11.304Z,11.53
2019-03-16T01:12:39.909Z,15.00
2019-03-16T01:15:12.952Z,11.57
2019-03-16T01:17:41.669Z,38.27
2019-03-16T01:20:11.691Z,16.93
2019-03-16T01:22:41.858Z,9.23
2019-03-16T01:25:13.007Z,15.63
2019-03-16T01:27:41.609Z,13.57
2019-03-16T01:30:12.641Z,16.80
2019-03-16T01:32:41.343Z,16.70
2019-03-16T01:35:10.284Z,15.33
2019-03-16T01:37:39.037Z,18.10
2019-03-16T01:40:10.051Z,16.33
2019-03-16T01:42:38.764Z,21.40
2019-03-16T01:45:11.220Z,15.13
2019-03-16T01:47:40.079Z,15.90
2019-03-16T01:50:10.529Z,19.83
2019-03-16T01:52:39.232Z,18.03
2019-03-16T01:55:09.301Z,17.67
2019-03-16T01:57:37.797Z,12.10
2019-03-16T02:00:11.605Z,14.17
2019-03-16T02:02:53.706Z,14.00
2019-03-16T02:05:10.669Z,14.33
2019-03-16T02:07:39.368Z,25.60
2019-03-16T02:10:09.920Z,19.63
2019-03-16T02:12:38.542Z,8.03
2019-03-16T02:15:08.692Z,5.80
2019-03-16T02:17:37.409Z,7.70
2019-03-16T02:20:08.108Z,4.80
2019-03-16T02:22:36.763Z,4.03
2019-03-16T02:25:07.010Z,2.43
2019-03-16T02:27:35.698Z,1.93
2019-03-16T02:30:06.533Z,0.83
2019-03-16T02:32:35.092Z,1.13
2019-03-16T02:35:04.580Z,0.83
2019-03-16T02:37:37.303Z,1.03
2019-03-16T02:40:10.416Z,1.03
2019-03-16T02:42:39.063Z,1.00
2019-03-16T02:45:09.741Z,3.87
2019-03-16T02:47:39.212Z,1.90
2019-03-16T02:50:09.775Z,1.35
2019-03-16T02:52:38.339Z,1.30
2019-03-16T02:55:09.201Z,2.20
2019-03-16T02:57:37.731Z,3.53
2019-03-16T03:00:12.228Z,1.20
2019-03-16T03:02:41.027Z,1.40
2019-03-16T03:05:13.028Z,1.27
2019-03-16T03:07:41.899Z,2.67
2019-03-16T03:10:17.446Z,1.63
2019-03-16T03:12:46.155Z,1.30
2019-03-16T03:15:14.753Z,1.07
2019-03-16T03:17:43.310Z,3.08
2019-03-16T03:20:12.045Z,1.97
2019-03-16T03:22:40.599Z,1.00
2019-03-16T03:25:09.270Z,1.00
2019-03-16T03:27:37.956Z,1.10
2019-03-16T03:30:11.883Z,1.27
2019-03-16T03:32:40.113Z,0.87
2019-03-16T03:35:10.632Z,1.00
2019-03-16T03:37:39.270Z,1.33
2019-03-16T03:40:10.241Z,0.93
2019-03-16T03:42:38.875Z,1.10
2019-03-16T03:45:10.446Z,1.62
2019-03-16T03:47:39.066Z,1.53
2019-03-16T03:50:12.882Z,1.40
2019-03-16T03:52:50.611Z,2.20
2019-03-16T03:55:15.543Z,1.37
2019-03-16T03:57:44.190Z,1.60
2019-03-16T04:00:19.509Z,0.90
2019-03-16T04:02:48.130Z,1.80
2019-03-16T04:05:16.916Z,1.53
2019-03-16T04:07:45.562Z,1.23
2019-03-16T04:10:14.363Z,1.10
2019-03-16T04:12:42.910Z,2.90
2019-03-16T04:15:13.042Z,1.17
2019-03-16T04:17:41.893Z,2.30
2019-03-16T04:20:13.294Z,1.73
2019-03-16T04:22:41.893Z,1.10
2019-03-16T04:25:10.492Z,1.13
2019-03-16T04:27:39.023Z,1.93
2019-03-16T04:30:11.441Z,1.87
2019-03-16T04:32:39.977Z,1.67
2019-03-16T04:35:10.565Z,2.07
2019-03-16T04:37:38.856Z,2.90
2019-03-16T04:40:13.474Z,2.03
2019-03-16T04:42:42.038Z,1.80
2019-03-16T04:45:11.729Z,2.00
2019-03-16T04:47:40.377Z,1.77
2019-03-16T04:50:11.394Z,1.73
2019-03-16T04:52:40.114Z,2.03
2019-03-16T04:55:09.782Z,5.60
2019-03-16T04:57:38.440Z,1.92
2019-03-16T05:00:10.138Z,3.87
2019-03-16T05:02:38.742Z,2.17
2019-03-16T05:05:07.811Z,2.37
2019-03-16T05:07:36.350Z,3.43
2019-03-16T05:10:07.758Z,3.93
2019-03-16T05:12:36.501Z,4.87
2019-03-16T05:15:07.875Z,6.70
2019-03-16T05:17:36.438Z,5.10
2019-03-16T05:20:10.583Z,3.37
2019-03-16T05:22:39.492Z,7.17
2019-03-16T05:25:10.687Z,3.27
2019-03-16T05:27:39.144Z,3.85
2019-03-16T05:30:13.029Z,3.53
2019-03-16T05:32:41.550Z,7.05
2019-03-16T05:35:10.157Z,11.03
2019-03-16T05:37:38.755Z,7.70
2019-03-16T05:40:09.925Z,7.87
2019-03-16T05:42:38.587Z,4.95
2019-03-16T05:45:10.140Z,8.70
2019-03-16T05:47:40.241Z,6.03
2019-03-16T05:50:15.881Z,6.07
2019-03-16T05:52:44.357Z,11.18
2019-03-16T05:55:12.949Z,5.20
2019-03-16T05:57:41.498Z,7.40
2019-03-16T06:00:13.452Z,8.97
2019-03-16T06:02:42.190Z,6.75
2019-03-16T06:05:13.059Z,7.67
2019-03-16T06:07:41.669Z,5.15
2019-03-16T06:10:11.760Z,5.80
2019-03-16T06:12:40.359Z,6.15
2019-03-16T06:15:10.607Z,3.22
2019-03-16T06:17:39.133Z,6.77
2019-03-16T06:20:12.541Z,8.63
2019-03-16T06:22:41.146Z,12.43
2019-03-16T06:25:10.550Z,8.83
2019-03-16T06:27:39.071Z,5.67
2019-03-16T06:30:13.118Z,9.30
2019-03-16T06:32:41.673Z,4.57
2019-03-16T06:35:23.422Z,7.60
2019-03-16T06:37:41.172Z,4.58
2019-03-16T06:40:11.322Z,4.30
2019-03-16T06:42:40.222Z,3.45
2019-03-16T06:45:10.423Z,5.07
2019-03-16T06:47:39.045Z,8.03
2019-03-16T06:50:12.388Z,3.97
2019-03-16T06:52:40.923Z,11.00
2019-03-16T06:55:10.127Z,6.17
2019-03-16T06:57:38.649Z,4.50
2019-03-16T07:00:12.825Z,3.55
2019-03-16T07:02:41.362Z,4.43
2019-03-16T07:05:11.865Z,3.52
2019-03-16T07:07:40.569Z,6.72
2019-03-16T07:10:16.390Z,4.30
2019-03-16T07:12:44.893Z,3.95
2019-03-16T07:15:14.952Z,5.50
2019-03-16T07:17:43.554Z,6.03
2019-03-16T07:20:13.889Z,4.03
2019-03-16T07:22:42.412Z,8.65
2019-03-16T07:25:11.164Z,5.33
2019-03-16T07:27:39.845Z,7.42
2019-03-16T07:30:14.132Z,5.05
2019-03-16T07:32:45.105Z,6.67
2019-03-16T07:35:13.767Z,5.80
2019-03-16T07:37:42.294Z,5.33
2019-03-16T07:40:12.814Z,12.10
2019-03-16T07:42:41.418Z,5.30
2019-03-16T07:45:13.396Z,5.50
2019-03-16T07:47:42.002Z,6.00
2019-03-16T07:50:12.808Z,5.12
2019-03-16T07:52:41.409Z,4.85
2019-03-16T07:55:10.449Z,4.97
2019-03-16T07:57:40.317Z,4.87
2019-03-16T08:00:13.079Z,4.08
2019-03-16T08:02:43.361Z,6.15
2019-03-16T08:05:18.673Z,5.08
2019-03-16T08:07:42.252Z,5.30
2019-03-16T08:10:11.879Z,7.30
2019-03-16T08:12:40.479Z,8.03
2019-03-16T08:15:10.449Z,7.15
2019-03-16T08:17:39.087Z,5.58
2019-03-16T08:20:09.590Z,5.87
2019-03-16T08:22:38.128Z,4.55
2019-03-16T08:25:07.832Z,6.05
2019-03-16T08:27:36.360Z,5.70
2019-03-16T08:30:07.922Z,4.75
2019-03-16T08:32:36.551Z,3.65
2019-03-16T08:35:06.545Z,5.12
2019-03-16T08:37:37.842Z,4.87
2019-03-16T08:40:11.096Z,5.33
2019-03-16T08:42:39.633Z,9.88
2019-03-16T08:45:11.504Z,9.83
2019-03-16T08:47:40.109Z,8.90
2019-03-16T08:50:12.056Z,7.33
2019-03-16T08:52:40.853Z,8.93
2019-03-16T08:55:10.222Z,5.30
2019-03-16T08:57:38.942Z,6.75
2019-03-16T09:00:12.488Z,6.53
2019-03-16T09:02:41.028Z,9.33
2019-03-16T09:05:09.824Z,8.35
2019-03-16T09:07:38.351Z,8.33
2019-03-16T09:10:09.388Z,5.60
2019-03-16T09:12:38.022Z,9.23
2019-03-16T09:15:14.600Z,6.67
2019-03-16T09:17:43.768Z,6.72
2019-03-16T09:20:12.376Z,9.78
2019-03-16T09:22:40.977Z,7.53
2019-03-16T09:25:10.407Z,7.62
2019-03-16T09:27:39.437Z,7.37
2019-03-16T09:30:16.102Z,7.60
2019-03-16T09:32:44.730Z,8.58
2019-03-16T09:35:13.365Z,7.35
2019-03-16T09:37:41.972Z,7.08
2019-03-16T09:40:12.280Z,7.95
2019-03-16T09:42:42.316Z,9.18
2019-03-16T09:45:14.441Z,6.90
2019-03-16T09:47:46.485Z,5.75
2019-03-16T09:50:15.046Z,8.08
2019-03-16T09:52:43.651Z,8.18
2019-03-16T09:55:13.414Z,7.37
2019-03-16T09:57:42.051Z,7.53
2019-03-16T10:00:15.955Z,7.33
2019-03-16T10:02:44.547Z,6.70
2019-03-16T10:05:13.491Z,9.73
2019-03-16T10:07:41.946Z,9.85
2019-03-16T10:10:15.356Z,10.43
2019-03-16T10:12:43.961Z,6.10
2019-03-16T10:15:14.171Z,8.18
2019-03-16T10:17:42.714Z,11.48
2019-03-16T10:20:13.395Z,9.08
2019-03-16T10:22:41.995Z,15.15
2019-03-16T10:25:10.598Z,8.73
2019-03-16T10:27:39.176Z,8.88
2019-03-16T10:30:12.718Z,8.98
2019-03-16T10:32:41.289Z,7.47
2019-03-16T10:35:09.891Z,10.63
2019-03-16T10:37:38.486Z,7.95
2019-03-16T10:40:10.036Z,9.68
2019-03-16T10:42:39.769Z,9.43
2019-03-16T10:45:10.039Z,6.70
2019-03-16T10:47:38.571Z,12.82
2019-03-16T10:50:09.838Z,7.17
2019-03-16T10:52:38.326Z,6.03
2019-03-16T10:55:08.424Z,9.75
2019-03-16T10:57:37.287Z,8.68
2019-03-16T11:00:16.848Z,7.50
2019-03-16T11:02:45.442Z,9.33
2019-03-16T11:05:14.057Z,8.93
2019-03-16T11:07:42.566Z,11.03
2019-03-16T11:10:15.106Z,8.83
2019-03-16T11:12:43.717Z,7.10
2019-03-16T11:15:13.649Z,7.05
2019-03-16T11:17:45.148Z,5.37
2019-03-16T11:20:16.741Z,11.20
2019-03-16T11:22:45.486Z,8.65
2019-03-16T11:25:14.017Z,9.85
2019-03-16T11:27:42.614Z,15.03
2019-03-16T11:30:16.137Z,10.35
2019-03-16T11:32:44.746Z,11.38
2019-03-16T11:35:14.885Z,11.78
2019-03-16T11:37:43.492Z,8.80
2019-03-16T11:40:17.645Z,9.03
2019-03-16T11:42:46.273Z,9.15
2019-03-16T11:45:17.260Z,7.05
2019-03-16T11:47:46.765Z,10.10
2019-03-16T11:50:15.727Z,6.50
2019-03-16T11:52:44.408Z,7.40
2019-03-16T11:55:13.003Z,6.28
2019-03-16T11:57:41.580Z,9.85
2019-03-16T12:00:16.523Z,10.48
2019-03-16T12:02:45.080Z,8.90
2019-03-16T12:05:13.850Z,6.62
2019-03-16T12:07:42.488Z,10.18
2019-03-16T12:10:15.019Z,9.30
2019-03-16T12:12:43.541Z,9.73
2019-03-16T12:15:13.097Z,11.97
2019-03-16T12:17:41.699Z,7.67
2019-03-16T12:20:12.634Z,7.22
2019-03-16T12:22:41.195Z,6.45
2019-03-16T12:25:13.572Z,7.42
2019-03-16T12:27:42.192Z,8.70
2019-03-16T12:30:15.571Z,5.83
2019-03-16T12:32:44.156Z,5.83
2019-03-16T12:35:12.781Z,6.55
2019-03-16T12:37:41.238Z,9.63
2019-03-16T12:40:14.332Z,9.20
2019-03-16T12:42:44.274Z,4.95
2019-03-16T12:45:20.589Z,10.50
2019-03-16T12:47:48.179Z,10.55
2019-03-16T12:50:17.058Z,7.80
2019-03-16T12:52:45.934Z,5.87
2019-03-16T12:55:14.545Z,6.92
2019-03-16T12:57:43.310Z,7.92
2019-03-16T13:00:16.731Z,8.53
2019-03-16T13:02:45.327Z,9.23
2019-03-16T13:05:13.933Z,13.83
2019-03-16T13:07:42.471Z,12.18
2019-03-16T13:10:18.822Z,9.45
2019-03-16T13:12:47.505Z,7.60
2019-03-16T13:15:16.107Z,6.50
2019-03-16T13:17:44.609Z,11.28
2019-03-16T13:20:17.335Z,10.00
2019-03-16T13:22:45.936Z,9.55
2019-03-16T13:25:14.545Z,6.50
2019-03-16T13:27:43.154Z,10.30
2019-03-16T13:30:17.512Z,10.68
2019-03-16T13:32:46.164Z,8.25
2019-03-16T13:35:14.799Z,9.20
2019-03-16T13:37:43.562Z,8.70
2019-03-16T13:40:16.520Z,8.30
2019-03-16T13:42:45.550Z,13.28
2019-03-16T13:45:14.567Z,13.20
2019-03-16T13:47:43.174Z,13.68
2019-03-16T13:50:14.307Z,11.70
2019-03-16T13:52:43.074Z,9.78
2019-03-16T13:55:13.457Z,11.85
2019-03-16T13:57:42.098Z,13.38
2019-03-16T14:00:18.269Z,12.73
2019-03-16T14:02:46.917Z,12.37
2019-03-16T14:05:15.494Z,8.05
2019-03-16T14:07:44.570Z,10.50
2019-03-16T14:10:21.354Z,10.28
2019-03-16T14:12:49.987Z,8.48
2019-03-16T14:15:19.578Z,15.08
2019-03-16T14:17:48.082Z,9.73
2019-03-16T14:20:17.073Z,8.88
2019-03-16T14:22:45.601Z,10.70
2019-03-16T14:25:14.235Z,7.25
2019-03-16T14:27:42.829Z,8.60
2019-03-16T14:30:39.393Z,7.25
2019-03-16T14:32:49.638Z,11.80
2019-03-16T14:35:18.240Z,7.50
2019-03-16T14:37:46.775Z,6.35
2019-03-16T14:40:16.220Z,7.37
2019-03-16T14:42:44.893Z,6.85
2019-03-16T14:45:17.217Z,12.33
2019-03-16T14:47:46.021Z,10.63
2019-03-16T14:50:19.617Z,6.70
2019-03-16T14:52:48.203Z,7.53
2019-03-16T14:55:16.874Z,10.88
2019-03-16T14:57:45.480Z,9.53
2019-03-16T15:00:15.911Z,9.38
2019-03-16T15:02:46.049Z,8.33
2019-03-16T15:05:14.907Z,10.75
2019-03-16T15:07:43.507Z,8.60
2019-03-16T15:10:14.269Z,8.35
2019-03-16T15:12:42.890Z,11.93
2019-03-16T15:15:14.061Z,12.25
2019-03-16T15:17:42.667Z,8.38
2019-03-16T15:20:12.062Z,10.78
2019-03-16T15:22:40.609Z,12.10
2019-03-16T15:25:11.697Z,15.65
2019-03-16T15:27:40.544Z,9.75
2019-03-16T15:30:22.201Z,11.65
2019-03-16T15:32:52.469Z,14.50
2019-03-16T15:35:21.143Z,10.38
2019-03-16T15:37:49.756Z,9.70
2019-03-16T15:40:18.380Z,9.33
2019-03-16T15:42:46.977Z,7.25
2019-03-16T15:45:23.912Z,6.67
2019-03-16T15:47:52.515Z,10.00
2019-03-16T15:50:21.117Z,8.23
2019-03-16T15:52:49.652Z,13.93
2019-03-16T15:55:18.318Z,10.13
2019-03-16T15:57:46.928Z,12.40
2019-03-16T16:00:20.453Z,10.30
2019-03-16T16:02:49.056Z,12.47
2019-03-16T16:05:17.633Z,13.05
2019-03-16T16:07:46.270Z,9.10
2019-03-16T16:10:18.916Z,9.53
2019-03-16T16:12:47.519Z,13.08
2019-03-16T16:15:16.117Z,11.50
2019-03-16T16:17:46.224Z,11.80
2019-03-16T16:20:18.425Z,13.45
2019-03-16T16:22:48.367Z,23.18
2019-03-16T16:25:17.032Z,21.95
2019-03-16T16:27:45.606Z,24.75
2019-03-16T16:30:15.909Z,29.32
2019-03-16T16:32:44.508Z,46.88
2019-03-16T16:35:15.458Z,36.95
2019-03-16T16:37:44.400Z,26.57
2019-03-16T16:40:20.529Z,39.18
2019-03-16T16:42:49.170Z,22.95
2019-03-16T16:45:20.962Z,19.98
2019-03-16T16:47:49.568Z,14.58
2019-03-16T16:50:19.705Z,17.40
2019-03-16T16:52:48.312Z,12.68
2019-03-16T16:55:20.137Z,17.20
2019-03-16T16:57:48.716Z,17.90
2019-03-16T17:00:24.641Z,19.25
2019-03-16T17:02:53.176Z,20.72
2019-03-16T17:05:21.780Z,14.90
2019-03-16T17:07:50.332Z,12.33
2019-03-16T17:10:18.944Z,16.42
2019-03-16T17:12:47.634Z,28.95
2019-03-16T17:15:18.321Z,32.73
2019-03-16T17:17:46.941Z,32.80
2019-03-16T17:20:16.166Z,25.23
2019-03-16T17:22:53.406Z,76.45
2019-03-16T17:25:21.976Z,52.45
2019-03-16T17:27:50.599Z,36.68
2019-03-16T17:30:21.973Z,30.23
2019-03-16T17:32:50.494Z,49.70
2019-03-16T17:35:19.100Z,36.93
2019-03-16T17:37:48.869Z,27.40
2019-03-16T17:40:17.423Z,33.25
2019-03-16T17:42:46.036Z,35.03
2019-03-16T17:45:17.520Z,35.58
2019-03-16T17:47:46.132Z,26.52
2019-03-16T17:50:16.054Z,26.23
2019-03-16T17:52:44.587Z,23.42
2019-03-16T17:55:15.326Z,22.25
2019-03-16T17:57:45.424Z,26.00
2019-03-16T18:00:18.772Z,14.05
2019-03-16T18:02:51.776Z,13.08
2019-03-16T18:05:17.809Z,21.05
2019-03-16T18:07:46.338Z,18.40
2019-03-16T18:10:16.257Z,12.03
2019-03-16T18:12:44.964Z,12.95
2019-03-16T18:15:15.191Z,15.70
2019-03-16T18:17:43.808Z,12.03
2019-03-16T18:20:17.089Z,22.60
2019-03-16T18:22:44.373Z,21.55
2019-03-16T18:25:13.880Z,12.47
2019-03-16T18:27:42.520Z,14.90
2019-03-16T18:30:16.241Z,11.50
2019-03-16T18:32:45.140Z,12.57
2019-03-16T18:35:14.069Z,11.45
2019-03-16T18:37:42.799Z,10.18
2019-03-16T18:40:13.393Z,16.87
2019-03-16T18:42:42.030Z,10.30
2019-03-16T18:45:33.545Z,11.22
2019-03-16T18:48:02.284Z,10.68
2019-03-16T18:50:30.923Z,10.00
2019-03-16T18:52:59.501Z,10.78
2019-03-16T18:55:28.037Z,15.32
2019-03-16T18:57:56.709Z,12.73
2019-03-16T19:00:25.154Z,11.18
2019-03-16T19:02:53.759Z,14.50
2019-03-16T19:05:22.363Z,13.15
2019-03-16T19:07:50.898Z,11.08
2019-03-16T19:10:19.602Z,13.75
2019-03-16T19:12:48.207Z,10.67
2019-03-16T19:15:18.027Z,13.58
2019-03-16T19:17:58.240Z,11.55
2019-03-16T19:20:18.080Z,13.10
2019-03-16T19:22:47.492Z,11.30
2019-03-16T19:25:23.268Z,10.75
2019-03-16T19:27:51.878Z,11.43
2019-03-16T19:30:20.511Z,11.22
2019-03-16T19:32:49.123Z,12.23
2019-03-16T19:35:18.031Z,15.10
2019-03-16T19:37:47.311Z,14.38
2019-03-16T19:40:23.685Z,14.35
2019-03-16T19:42:52.322Z,14.65
2019-03-16T19:45:21.008Z,12.73
2019-03-16T19:47:49.682Z,14.93
2019-03-16T19:50:18.322Z,10.38
2019-03-16T19:52:48.589Z,12.73
2019-03-16T19:55:17.198Z,11.43
2019-03-16T19:57:47.286Z,13.70
2019-03-16T20:00:17.972Z,11.18
2019-03-16T20:02:51.015Z,10.70
2019-03-16T20:05:17.015Z,9.58
2019-03-16T20:07:45.642Z,9.75
2019-03-16T20:10:15.739Z,12.65
2019-03-16T20:12:44.350Z,11.25
2019-03-16T20:15:14.389Z,11.63
2019-03-16T20:17:42.988Z,7.90
2019-03-16T20:20:18.110Z,13.88
2019-03-16T20:22:46.728Z,15.40
2019-03-16T20:25:15.589Z,8.23
2019-03-16T20:27:44.167Z,11.60
2019-03-16T20:30:14.439Z,13.35
2019-03-16T20:32:43.072Z,14.95
2019-03-16T20:35:12.076Z,15.45
2019-03-16T20:37:40.694Z,17.20
2019-03-16T20:40:11.635Z,15.25
2019-03-16T20:42:40.298Z,12.30
2019-03-16T20:45:11.089Z,14.78
2019-03-16T20:47:39.953Z,13.88
2019-03-16T20:50:11.282Z,14.83
2019-03-16T20:52:39.883Z,11.65
2019-03-16T20:55:09.880Z,15.80
2019-03-16T20:57:38.453Z,10.43
2019-03-16T21:00:15.711Z,10.60
2019-03-16T21:02:44.455Z,11.00
2019-03-16T21:05:13.081Z,10.15
2019-03-16T21:07:41.644Z,11.57
2019-03-16T21:10:11.541Z,12.88
2019-03-16T21:12:40.610Z,12.40
2019-03-16T21:15:19.623Z,11.95
2019-03-16T21:17:48.184Z,12.58
2019-03-16T21:20:26.922Z,15.68
2019-03-16T21:22:55.465Z,15.23
2019-03-16T21:25:24.067Z,13.20
2019-03-16T21:27:52.819Z,12.73
2019-03-16T21:30:22.143Z,16.73
2019-03-16T21:32:52.520Z,14.35
2019-03-16T21:35:20.999Z,14.20
2019-03-16T21:37:49.602Z,13.72
2019-03-16T21:40:18.241Z,11.65
2019-03-16T21:42:46.842Z,15.23
2019-03-16T21:45:17.237Z,23.85
2019-03-16T21:47:45.905Z,12.85
2019-03-16T21:50:15.580Z,20.90
2019-03-16T21:52:45.058Z,24.12
2019-03-16T21:55:14.814Z,16.12
2019-03-16T21:57:43.347Z,13.32
2019-03-16T22:00:18.215Z,13.25
2019-03-16T22:02:46.829Z,10.78
2019-03-16T22:05:15.445Z,24.95
2019-03-16T22:07:44.257Z,19.17
2019-03-16T22:10:18.748Z,18.23
2019-03-16T22:12:47.364Z,15.23
2019-03-16T22:15:16.874Z,40.98
2019-03-16T22:17:45.915Z,11.08
2019-03-16T22:20:18.273Z,14.70
2019-03-16T22:22:46.878Z,14.53
2019-03-16T22:25:15.482Z,11.73
2019-03-16T22:27:44.014Z,12.93
2019-03-16T22:30:17.637Z,12.98
2019-03-16T22:32:46.261Z,12.00
2019-03-16T22:35:15.160Z,12.50
2019-03-16T22:37:43.674Z,11.12
2019-03-16T22:40:13.502Z,10.28
2019-03-16T22:42:45.080Z,10.90
2019-03-16T22:45:14.888Z,12.43
2019-03-16T22:47:43.447Z,13.88
2019-03-16T22:50:19.799Z,8.43
2019-03-16T22:52:48.406Z,9.63
2019-03-16T22:55:17.092Z,15.47
2019-03-16T22:57:45.696Z,10.78
2019-03-16T23:00:21.672Z,11.70
2019-03-16T23:02:50.283Z,14.55
2019-03-16T23:05:18.806Z,11.13
2019-03-16T23:07:47.725Z,11.48
2019-03-16T23:10:16.220Z,9.05
2019-03-16T23:12:45.118Z,10.28
2019-03-16T23:15:13.732Z,12.63
2019-03-16T23:17:42.370Z,11.45
2019-03-16T23:20:11.883Z,11.25
2019-03-16T23:22:40.419Z,15.28
2019-03-16T23:25:10.488Z,14.33
2019-03-16T23:27:47.391Z,14.70
2019-03-16T23:30:15.952Z,9.93
2019-03-16T23:32:44.665Z,10.65
2019-03-16T23:35:13.268Z,11.10
2019-03-16T23:37:43.133Z,13.98
2019-03-16T23:40:19.960Z,16.20
2019-03-16T23:42:43.517Z,13.20
2019-03-16T23:45:13.427Z,11.80
2019-03-16T23:47:43.030Z,14.68
2019-03-16T23:50:13.160Z,13.72
2019-03-16T23:52:41.774Z,12.25
2019-03-16T23:55:33.586Z,13.75
2019-03-16T23:57:41.504Z,13.62
